Time;durP1;ratioP1;P1;durP2;ratioP2;P2;SDS_P1;SDS_P2;PMS_P1;PMS_P2;Temp;Humidity;BMP_temperature;BMP_pressure;BME280_temperature;BME280_humidity;BME280_pressure;Samples;Min_cycle;Max_cycle;Signal;HPM_P1;HPM_P2
2021/04/16 00:00:33;;;;;;;0.73;0.73;;;6.70;99.90;;;;;;5056845;28;20164;-75
2021/04/16 00:02:59;;;;;;;0.47;0.47;;;6.60;99.90;;;;;;5056715;28;20665;-75
2021/04/16 00:05:26;;;;;;;0.22;0.22;;;6.80;99.90;;;;;;5056718;28;20155;-76
2021/04/16 00:07:52;;;;;;;0.80;0.80;;;6.70;99.90;;;;;;5056637;28;20160;-75
2021/04/16 00:10:38;;;;;;;0.75;0.75;;;6.80;99.90;;;;;;5056633;28;20220;-75
2021/04/16 00:13:04;;;;;;;1.02;1.02;;;6.70;99.90;;;;;;5056471;28;20167;-75
2021/04/16 00:15:33;;;;;;;1.08;1.08;;;6.80;99.90;;;;;;5056595;28;20345;-75
2021/04/16 00:18:00;;;;;;;0.60;0.60;;;6.60;99.90;;;;;;5056264;28;20215;-76
2021/04/16 00:20:28;;;;;;;0.95;0.95;;;6.70;99.90;;;;;;5056326;28;20682;-77
2021/04/16 00:22:54;;;;;;;0.45;0.45;;;6.90;99.90;;;;;;5056429;28;20167;-76
2021/04/16 00:25:23;;;;;;;0.45;0.45;;;7.00;99.90;;;;;;5056329;28;20412;-77
2021/04/16 00:27:49;;;;;;;1.55;1.20;;;6.90;99.90;;;;;;5056188;28;20242;-77
2021/04/16 00:30:17;;;;;;;0.52;0.52;;;6.80;99.90;;;;;;5056362;28;20171;-77
2021/04/16 00:32:42;;;;;;;1.48;0.73;;;6.80;99.90;;;;;;5056050;28;20242;-76
2021/04/16 00:35:09;;;;;;;0.43;0.43;;;6.80;99.90;;;;;;5056320;28;20187;-77
2021/04/16 00:37:36;;;;;;;1.05;1.05;;;6.70;99.90;;;;;;5055961;28;20198;-76
2021/04/16 00:40:04;;;;;;;0.70;0.70;;;6.80;99.90;;;;;;5056095;28;20171;-76
2021/04/16 00:42:30;;;;;;;0.73;0.73;;;6.50;99.90;;;;;;5038129;28;20183;-77
2021/04/16 00:44:55;;;;;;;0.55;0.55;;;6.50;99.90;;;;;;5055857;28;20224;-77
2021/04/16 00:47:22;;;;;;;0.60;0.60;;;6.40;99.90;;;;;;5037978;28;20658;-77
2021/04/16 00:49:55;;;;;;;0.68;0.68;;;6.50;99.90;;;;;;5059972;28;20170;-76
2021/04/16 00:52:31;;;;;;;0.57;0.57;;;6.60;99.90;;;;;;5056755;28;20159;-75
2021/04/16 00:54:57;;;;;;;1.60;1.50;;;6.70;99.90;;;;;;5056858;28;20158;-75
2021/04/16 00:57:23;;;;;;;0.77;0.77;;;6.80;99.90;;;;;;5039013;28;20301;-76
2021/04/16 00:59:55;;;;;;;0.60;0.60;;;6.80;99.90;;;;;;5055524;28;20155;-76
2021/04/16 01:02:22;;;;;;;0.20;0.20;;;6.70;99.90;;;;;;5056880;28;20161;-75
2021/04/16 01:04:48;;;;;;;0.45;0.45;;;6.60;99.90;;;;;;5056461;28;20286;-75
2021/04/16 01:07:14;;;;;;;2.92;1.48;;;6.60;99.90;;;;;;5056399;28;20210;-76
2021/04/16 01:09:40;;;;;;;0.60;0.60;;;6.60;99.90;;;;;;5056915;28;20167;-76
2021/04/16 01:12:08;;;;;;;0.43;0.43;;;6.50;99.90;;;;;;5056423;28;20509;-76
2021/04/16 01:14:37;;;;;;;8.75;1.90;;;6.50;99.90;;;;;;5055940;28;20219;-76
2021/04/16 01:17:05;;;;;;;0.50;0.50;;;6.40;99.90;;;;;;5058056;28;20204;-76
2021/04/16 01:19:40;;;;;;;0.50;0.50;;;6.30;99.90;;;;;;5040723;28;20531;-76
2021/04/16 01:22:16;;;;;;;0.60;0.60;;;6.20;99.90;;;;;;5055833;28;20154;-75
2021/04/16 01:24:42;;;;;;;0.75;0.75;;;6.20;99.90;;;;;;5050850;28;20158;-76
2021/04/16 01:27:12;;;;;;;0.75;0.75;;;6.20;99.90;;;;;;5076108;28;20206;-76
2021/04/16 01:29:47;;;;;;;1.13;0.80;;;6.00;99.90;;;;;;5074509;28;20174;-76
2021/04/16 01:32:28;;;;;;;0.50;0.50;;;6.10;99.90;;;;;;5058061;28;20197;-75
2021/04/16 01:34:54;;;;;;;0.20;0.20;;;6.20;99.90;;;;;;5055224;28;20250;-76
2021/04/16 01:37:20;;;;;;;0.60;0.60;;;6.30;99.90;;;;;;5054867;28;20272;-76
2021/04/16 01:39:46;;;;;;;0.68;0.68;;;6.40;99.90;;;;;;5054951;28;20155;-76
2021/04/16 01:42:12;;;;;;;0.52;0.52;;;6.20;99.90;;;;;;5055024;28;20174;-76
2021/04/16 01:44:41;;;;;;;0.20;0.20;;;6.10;99.90;;;;;;5037017;28;20175;-75
2021/04/16 01:47:10;;;;;;;0.40;0.40;;;6.00;99.90;;;;;;5054886;28;20309;-76
2021/04/16 01:49:41;;;;;;;0.38;0.38;;;6.10;99.90;;;;;;5036937;28;20171;-76
2021/04/16 01:52:10;;;;;;;0.85;0.85;;;6.10;99.90;;;;;;5054836;28;20159;-76
2021/04/16 01:54:38;;;;;;;4.57;1.65;;;6.00;99.90;;;;;;5036748;28;20164;-75
2021/04/16 01:57:08;;;;;;;0.32;0.32;;;5.70;99.90;;;;;;5054402;28;20195;-75
2021/04/16 01:59:36;;;;;;;0.95;0.75;;;5.70;99.90;;;;;;5054544;28;20193;-76
2021/04/16 02:02:04;;;;;;;0.50;0.50;;;5.60;99.90;;;;;;5054470;28;20155;-76
2021/04/16 02:04:29;;;;;;;0.68;0.68;;;5.60;99.90;;;;;;5054496;28;20174;-75
2021/04/16 02:06:55;;;;;;;2.53;1.02;;;5.50;99.90;;;;;;5036552;28;20559;-76
2021/04/16 02:09:24;;;;;;;1.45;1.38;;;5.40;99.90;;;;;;5054293;28;20543;-76
2021/04/16 02:11:51;;;;;;;0.90;0.90;;;5.40;99.90;;;;;;5052912;28;20590;-76
2021/04/16 02:14:20;;;;;;;1.25;0.80;;;5.40;99.90;;;;;;5054183;28;20211;-76
2021/04/16 02:16:49;;;;;;;0.40;0.40;;;5.60;99.90;;;;;;5054027;28;20207;-76
2021/04/16 02:19:15;;;;;;;0.70;0.70;;;5.70;99.90;;;;;;5054140;28;20164;-76
2021/04/16 02:21:41;;;;;;;6.22;0.65;;;5.80;99.90;;;;;;5054204;28;20717;-76
2021/04/16 02:24:08;;;;;;;1.13;0.55;;;5.70;99.90;;;;;;5055017;28;20187;-75
2021/04/16 02:26:35;;;;;;;0.93;0.93;;;5.80;99.90;;;;;;5055598;28;20310;-76
2021/04/16 02:29:02;;;;;;;0.30;0.30;;;5.70;99.90;;;;;;5054789;28;20163;-76
2021/04/16 02:31:28;;;;;;;1.05;1.05;;;5.40;99.90;;;;;;5054892;28;20174;-75
2021/04/16 02:33:53;;;;;;;0.47;0.47;;;5.70;99.90;;;;;;5036985;28;20183;-75
2021/04/16 02:36:19;;;;;;;0.73;0.73;;;5.80;99.90;;;;;;5053655;28;20195;-76
2021/04/16 02:38:44;;;;;;;0.40;0.40;;;5.50;99.90;;;;;;5052846;28;20581;-75
2021/04/16 02:41:10;;;;;;;2.17;1.02;;;5.40;99.90;;;;;;5053847;28;20173;-76
2021/04/16 02:43:36;;;;;;;0.40;0.40;;;5.30;99.90;;;;;;5053630;28;20163;-76
2021/04/16 02:46:01;;;;;;;1.00;1.00;;;5.20;99.90;;;;;;5053656;28;20704;-76
2021/04/16 02:48:27;;;;;;;1.40;1.30;;;5.30;99.90;;;;;;5053783;28;20159;-75
2021/04/16 02:50:54;;;;;;;0.60;0.60;;;5.40;99.90;;;;;;5035760;28;20186;-75
2021/04/16 02:53:20;;;;;;;0.40;0.40;;;5.40;99.90;;;;;;5053758;28;20168;-75
2021/04/16 02:55:46;;;;;;;0.40;0.40;;;5.40;99.90;;;;;;5053512;28;20647;-76
2021/04/16 02:58:14;;;;;;;0.63;0.63;;;5.40;99.90;;;;;;5053525;28;20683;-76
2021/04/16 03:00:40;;;;;;;0.50;0.50;;;5.50;99.90;;;;;;5053720;28;20645;-75
2021/04/16 03:03:06;;;;;;;1.17;0.60;;;5.50;99.90;;;;;;5052274;28;20258;-76
2021/04/16 03:05:31;;;;;;;0.60;0.60;;;5.50;99.90;;;;;;5035490;28;20167;-75
2021/04/16 03:07:57;;;;;;;0.30;0.30;;;5.60;99.90;;;;;;5053576;28;20542;-75
2021/04/16 03:10:30;;;;;;;0.50;0.40;;;5.60;99.90;;;;;;5053403;28;20175;-75
2021/04/16 03:12:56;;;;;;;1.13;0.95;;;5.50;99.90;;;;;;5053290;28;20607;-75
2021/04/16 03:15:22;;;;;;;0.50;0.50;;;5.40;99.90;;;;;;5053098;28;20220;-75
2021/04/16 03:17:48;;;;;;;0.90;0.80;;;5.40;99.90;;;;;;5053322;28;20218;-76
2021/04/16 03:20:15;;;;;;;0.40;0.40;;;5.50;99.90;;;;;;5053223;28;20160;-76
2021/04/16 03:22:41;;;;;;;0.60;0.60;;;5.60;99.90;;;;;;5034793;28;20249;-76
2021/04/16 03:25:09;;;;;;;2.08;0.82;;;5.60;99.90;;;;;;5052002;28;20638;-76
2021/04/16 03:27:35;;;;;;;0.63;0.63;;;5.70;99.90;;;;;;5053117;28;20183;-75
2021/04/16 03:30:01;;;;;;;0.43;0.43;;;5.70;99.90;;;;;;5053585;28;20167;-76
2021/04/16 03:32:28;;;;;;;0.35;0.35;;;5.80;99.90;;;;;;5053043;28;20163;-75
2021/04/16 03:34:55;;;;;;;0.98;0.98;;;5.70;99.90;;;;;;5052995;28;20163;-75
2021/04/16 03:37:21;;;;;;;0.55;0.55;;;5.70;99.90;;;;;;5052858;28;20260;-75
2021/04/16 03:39:46;;;;;;;6.72;1.98;;;5.70;99.90;;;;;;5052986;28;20163;-75
2021/04/16 03:42:12;;;;;;;0.75;0.75;;;5.70;99.90;;;;;;5053253;28;20213;-77
2021/04/16 03:44:38;;;;;;;1.75;1.00;;;5.90;99.90;;;;;;5052846;28;20660;-76
2021/04/16 03:47:03;;;;;;;0.22;0.22;;;6.00;99.90;;;;;;5052921;28;20218;-76
2021/04/16 03:49:29;;;;;;;0.63;0.63;;;6.00;99.90;;;;;;5052937;28;20242;-76
2021/04/16 03:51:58;;;;;;;0.40;0.40;;;6.00;99.90;;;;;;5052901;28;20524;-76
2021/04/16 03:54:25;;;;;;;1.23;1.13;;;5.80;99.90;;;;;;5035274;28;20171;-76
2021/04/16 03:56:52;;;;;;;0.80;0.80;;;5.70;99.90;;;;;;5053708;28;20298;-76
2021/04/16 03:59:21;;;;;;;0.38;0.38;;;5.50;99.90;;;;;;5053837;28;20164;-77
2021/04/16 04:01:47;;;;;;;0.93;0.93;;;5.50;99.90;;;;;;5054063;28;20156;-76
2021/04/16 04:04:12;;;;;;;1.55;1.10;;;5.40;99.90;;;;;;5054571;28;20216;-76
2021/04/16 04:06:38;;;;;;;1.63;1.52;;;5.80;99.90;;;;;;5056296;28;20190;-76
2021/04/16 04:09:05;;;;;;;2.30;0.95;;;5.70;99.90;;;;;;5068427;28;20160;-76
2021/04/16 04:11:31;;;;;;;0.38;0.38;;;5.60;99.90;;;;;;5073575;28;20179;-76
2021/04/16 04:13:57;;;;;;;0.60;0.60;;;5.80;99.90;;;;;;5066917;28;20301;-75
2021/04/16 04:16:23;;;;;;;0.65;0.65;;;5.70;99.90;;;;;;5056059;28;20206;-76
2021/04/16 04:18:49;;;;;;;0.55;0.55;;;5.70;99.90;;;;;;5053399;28;20167;-75
2021/04/16 04:21:14;;;;;;;0.50;0.50;;;5.60;99.90;;;;;;5053111;28;20166;-75
2021/04/16 04:23:40;;;;;;;1.05;1.00;;;5.50;99.90;;;;;;5052825;28;20222;-75
2021/04/16 04:26:06;;;;;;;0.38;0.38;;;5.30;99.90;;;;;;5052559;28;20220;-75
2021/04/16 04:28:31;;;;;;;0.40;0.40;;;5.50;99.90;;;;;;5052482;28;20210;-75
2021/04/16 04:30:57;;;;;;;0.28;0.28;;;5.80;99.90;;;;;;5052792;28;20220;-75
2021/04/16 04:33:23;;;;;;;0.50;0.50;;;5.70;99.90;;;;;;5053870;28;20674;-75
2021/04/16 04:35:48;;;;;;;0.40;0.40;;;5.70;99.90;;;;;;5056262;28;20592;-75
2021/04/16 04:38:14;;;;;;;0.60;0.60;;;5.40;99.90;;;;;;5056101;28;20199;-76
2021/04/16 04:40:39;;;;;;;0.40;0.40;;;5.30;99.90;;;;;;5057036;28;20174;-76
2021/04/16 04:43:05;;;;;;;0.57;0.57;;;5.10;99.90;;;;;;5057834;28;20197;-76
2021/04/16 04:45:31;;;;;;;0.40;0.40;;;5.20;99.90;;;;;;5057340;28;20205;-75
2021/04/16 04:47:57;;;;;;;0.50;0.50;;;5.40;99.90;;;;;;5057264;28;20170;-76
2021/04/16 04:50:25;;;;;;;0.85;0.85;;;5.60;99.90;;;;;;5057167;28;20216;-76
2021/04/16 04:52:53;;;;;;;0.30;0.30;;;5.40;99.90;;;;;;5058367;28;20197;-76
2021/04/16 04:55:26;;;;;;;0.63;0.63;;;5.20;99.90;;;;;;5059052;28;20147;-75
2021/04/16 04:57:52;;;;;;;0.35;0.35;;;5.30;99.90;;;;;;5056213;28;20199;-75
2021/04/16 05:00:19;;;;;;;0.50;0.50;;;5.40;99.90;;;;;;5057317;28;20167;-76
2021/04/16 05:02:44;;;;;;;0.25;0.25;;;5.40;99.90;;;;;;5056863;28;20171;-76
2021/04/16 05:05:11;;;;;;;0.55;0.55;;;5.20;99.90;;;;;;5056535;28;20317;-76
2021/04/16 05:07:37;;;;;;;0.30;0.30;;;5.20;99.90;;;;;;5056498;28;20190;-76
2021/04/16 05:10:04;;;;;;;0.73;0.73;;;5.30;99.90;;;;;;5055429;28;20167;-77
2021/04/16 05:12:30;;;;;;;0.75;0.75;;;5.20;99.90;;;;;;5055507;28;20246;-76
2021/04/16 05:14:55;;;;;;;0.30;0.30;;;5.20;99.90;;;;;;5055132;28;20235;-77
2021/04/16 05:17:21;;;;;;;0.43;0.43;;;5.20;99.90;;;;;;5055111;28;20206;-76
2021/04/16 05:19:47;;;;;;;1.65;0.95;;;5.40;99.90;;;;;;5055364;28;20205;-76
2021/04/16 05:22:12;;;;;;;0.45;0.45;;;5.40;99.90;;;;;;5055701;28;20155;-76
2021/04/16 05:24:39;;;;;;;5.68;2.25;;;5.50;99.90;;;;;;5037455;28;20261;-76
2021/04/16 05:27:17;;;;;;;0.30;0.30;;;5.60;99.90;;;;;;5055187;28;20187;-76
2021/04/16 05:29:45;;;;;;;0.60;0.60;;;5.70;99.90;;;;;;5064834;28;20175;-77
2021/04/16 05:32:11;;;;;;;1.98;1.40;;;5.60;99.90;;;;;;5065906;28;20968;-75
2021/04/16 05:34:37;;;;;;;0.85;0.82;;;5.60;99.90;;;;;;5067402;28;20163;-76
2021/04/16 05:37:04;;;;;;;0.60;0.60;;;5.60;99.90;;;;;;5051937;28;20574;-75
2021/04/16 05:39:30;;;;;;;2.58;2.05;;;5.80;99.90;;;;;;5052388;28;20170;-77
2021/04/16 05:41:57;;;;;;;0.90;0.73;;;5.90;99.90;;;;;;5052298;28;20171;-74
2021/04/16 05:44:24;;;;;;;0.40;0.40;;;5.90;99.90;;;;;;5063224;28;20171;-76
2021/04/16 05:46:49;;;;;;;0.30;0.30;;;5.90;99.90;;;;;;5065971;28;20191;-76
2021/04/16 05:49:15;;;;;;;0.57;0.57;;;5.90;99.90;;;;;;5063390;28;20170;-76
2021/04/16 05:51:41;;;;;;;6.60;1.75;;;5.80;99.90;;;;;;5052888;28;20220;-76
2021/04/16 05:54:07;;;;;;;0.60;0.60;;;5.70;99.90;;;;;;5074035;28;20186;-75
2021/04/16 05:56:33;;;;;;;0.40;0.40;;;5.70;99.90;;;;;;5075100;28;20198;-75
2021/04/16 05:59:02;;;;;;;0.50;0.50;;;5.70;99.90;;;;;;5076616;28;20186;-75
2021/04/16 06:01:27;;;;;;;0.65;0.65;;;5.80;99.90;;;;;;5074019;28;20171;-76
2021/04/16 06:03:56;;;;;;;1.17;1.08;;;5.90;99.90;;;;;;5070858;28;20258;-77
2021/04/16 06:06:22;;;;;;;1.30;0.60;;;6.00;99.90;;;;;;5052683;28;20199;-77
2021/04/16 06:08:48;;;;;;;1.65;0.82;;;5.90;99.90;;;;;;5065592;28;20585;-76
2021/04/16 06:11:14;;;;;;;0.30;0.30;;;5.70;99.90;;;;;;5049296;28;20166;-76
2021/04/16 06:13:39;;;;;;;0.38;0.38;;;5.40;99.90;;;;;;5068150;28;20218;-76
2021/04/16 06:16:07;;;;;;;0.40;0.40;;;5.40;99.90;;;;;;5066635;28;20210;-76
2021/04/16 06:18:33;;;;;;;0.43;0.43;;;5.70;99.90;;;;;;5066206;28;20191;-76
2021/04/16 06:20:59;;;;;;;1.55;1.45;;;5.60;99.90;;;;;;5065236;28;20218;-76
2021/04/16 06:23:25;;;;;;;0.65;0.65;;;5.70;99.90;;;;;;5066802;28;20223;-75
2021/04/16 06:25:52;;;;;;;0.50;0.50;;;5.60;99.90;;;;;;5066218;28;20627;-76
2021/04/16 06:28:18;;;;;;;0.80;0.80;;;5.40;99.90;;;;;;5037293;28;20552;-75
2021/04/16 06:30:44;;;;;;;0.30;0.30;;;5.60;99.90;;;;;;5054253;28;20625;-76
2021/04/16 06:33:12;;;;;;;1.00;0.90;;;5.80;99.90;;;;;;5054246;28;20160;-76
2021/04/16 06:35:39;;;;;;;2.38;1.90;;;5.90;99.90;;;;;;5052772;28;20706;-75
2021/04/16 06:38:04;;;;;;;5.85;1.42;;;5.70;99.90;;;;;;5054305;28;20608;-76
2021/04/16 06:40:31;;;;;;;0.40;0.40;;;6.00;99.90;;;;;;5054041;28;20171;-75
2021/04/16 06:42:57;;;;;;;0.38;0.38;;;6.00;99.90;;;;;;5035892;28;20233;-76
2021/04/16 06:45:28;;;;;;;7.88;1.13;;;6.20;99.90;;;;;;5054146;28;20247;-75
2021/04/16 06:47:55;;;;;;;1.10;1.10;;;6.00;99.90;;;;;;5061787;28;20178;-75
2021/04/16 06:50:24;;;;;;;0.50;0.50;;;6.10;99.90;;;;;;5070854;28;20306;-76
2021/04/16 06:53:12;;;;;;;0.30;0.30;;;6.10;99.90;;;;;;5069049;28;20175;-76
2021/04/16 06:55:59;;;;;;;1.38;1.38;;;6.20;99.90;;;;;;5061053;28;20155;-74
2021/04/16 06:58:34;;;;;;;0.32;0.32;;;6.50;99.90;;;;;;5034888;28;20203;-74
2021/04/16 07:01:20;;;;;;;1.00;1.00;;;6.60;99.90;;;;;;5034990;28;20635;-75
2021/04/16 07:04:15;;;;;;;0.68;0.68;;;6.40;99.90;;;;;;5033689;28;20199;-74
2021/04/16 07:06:41;;;;;;;1.23;1.17;;;6.20;99.90;;;;;;5029278;28;20847;-74
2021/04/16 07:09:14;;;;;;;0.40;0.40;;;5.90;99.90;;;;;;5052118;28;20193;-77
2021/04/16 07:11:46;;;;;;;1.63;1.52;;;6.10;99.90;;;;;;5034004;28;20182;-74
2021/04/16 07:15:04;;;;;;;0.40;0.40;;;6.20;99.90;;;;;;5051567;28;20223;-75
2021/04/16 07:17:37;;;;;;;0.20;0.20;;;6.50;99.90;;;;;;5001305;28;20615;-77
2021/04/16 07:20:03;;;;;;;1.05;0.28;;;6.30;99.90;;;;;;5051794;28;20688;-76
2021/04/16 07:22:46;;;;;;;2.40;0.93;;;6.30;99.90;;;;;;5051696;28;20167;-76
2021/04/16 07:25:38;;;;;;;0.35;0.32;;;6.40;99.90;;;;;;5052224;28;20189;-77
2021/04/16 07:28:07;;;;;;;0.47;0.47;;;6.70;99.90;;;;;;5051675;28;20213;-75
2021/04/16 07:30:43;;;;;;;0.32;0.32;;;6.80;99.90;;;;;;5051695;28;20174;-75
2021/04/16 07:33:29;;;;;;;1.73;1.63;;;6.80;99.90;;;;;;5051813;28;20640;-76
2021/04/16 07:36:32;;;;;;;0.65;0.65;;;7.10;99.90;;;;;;5051439;28;20226;-75
2021/04/16 07:39:13;;;;;;;0.70;0.70;;;7.40;99.90;;;;;;5032091;28;20241;-75
2021/04/16 07:41:43;;;;;;;2.63;1.33;;;7.40;99.90;;;;;;5032095;28;20231;-75
2021/04/16 07:44:29;;;;;;;0.38;0.38;;;7.30;99.90;;;;;;5031867;28;20164;-75
2021/04/16 07:47:04;;;;;;;0.30;0.30;;;7.20;99.90;;;;;;5032004;28;20187;-76
2021/04/16 07:49:33;;;;;;;0.77;0.77;;;7.20;99.90;;;;;;5030237;28;20163;-76
2021/04/16 07:52:28;;;;;;;0.52;0.52;;;7.20;99.90;;;;;;5050251;28;20189;-75
2021/04/16 07:55:16;;;;;;;0.30;0.30;;;7.30;99.90;;;;;;5051866;28;20250;-75
2021/04/16 07:57:58;;;;;;;0.65;0.65;;;7.10;99.90;;;;;;5036376;28;20678;-75
2021/04/16 08:00:43;;;;;;;1.60;0.82;;;7.50;99.90;;;;;;5050744;28;20178;-75
2021/04/16 08:03:21;;;;;;;0.28;0.28;;;7.70;99.90;;;;;;5051790;28;20206;-76
2021/04/16 08:05:49;;;;;;;0.55;0.55;;;7.90;99.90;;;;;;5047461;28;20225;-76
2021/04/16 08:08:17;;;;;;;4.50;1.13;;;7.90;99.90;;;;;;5033749;28;20657;-76
2021/04/16 08:10:45;;;;;;;0.20;0.20;;;7.60;99.90;;;;;;5035607;28;20172;-76
2021/04/16 08:13:32;;;;;;;0.47;0.47;;;7.60;99.90;;;;;;5035298;28;20221;-76
2021/04/16 08:16:20;;;;;;;0.30;0.30;;;7.50;99.90;;;;;;5035330;28;20206;-76
2021/04/16 08:19:01;;;;;;;0.80;0.80;;;7.70;99.90;;;;;;5035504;28;20175;-76
2021/04/16 08:21:27;;;;;;;0.35;0.35;;;7.90;99.90;;;;;;5049403;28;20171;-73
2021/04/16 08:24:01;;;;;;;0.95;0.90;;;8.10;99.90;;;;;;5055130;28;20207;-73
2021/04/16 08:26:32;;;;;;;0.60;0.60;;;8.20;99.90;;;;;;5055756;28;20193;-77
2021/04/16 08:29:02;;;;;;;1.20;0.55;;;8.50;99.90;;;;;;5037401;28;20167;-73
2021/04/16 08:31:39;;;;;;;0.98;0.75;;;9.00;99.90;;;;;;5055924;28;20167;-74
2021/04/16 08:34:15;;;;;;;2.42;1.83;;;9.00;99.90;;;;;;5055318;28;20194;-74
2021/04/16 08:36:43;;;;;;;0.60;0.60;;;9.20;99.90;;;;;;5055006;28;20704;-74
2021/04/16 08:39:11;;;;;;;1.15;1.05;;;9.10;99.90;;;;;;5055497;28;20493;-74
2021/04/16 08:41:48;;;;;;;0.43;0.43;;;9.00;99.90;;;;;;5055158;28;20167;-74
2021/04/16 08:44:14;;;;;;;0.68;0.68;;;9.40;99.90;;;;;;5055596;28;20205;-74
2021/04/16 08:46:45;;;;;;;0.45;0.45;;;9.40;99.90;;;;;;5036978;28;20266;-73
2021/04/16 08:49:19;;;;;;;2.47;0.73;;;9.50;99.90;;;;;;5055013;28;20237;-74
2021/04/16 08:51:49;;;;;;;1.55;1.00;;;9.10;99.90;;;;;;5056949;28;20649;-74
2021/04/16 08:54:24;;;;;;;0.50;0.50;;;9.00;99.90;;;;;;5056122;28;20171;-74
2021/04/16 08:56:59;;;;;;;0.40;0.40;;;9.40;99.90;;;;;;5065680;28;20281;-76
2021/04/16 08:59:30;;;;;;;1.33;0.80;;;9.60;99.90;;;;;;5065945;28;20172;-77
2021/04/16 09:02:09;;;;;;;0.80;0.68;;;9.70;99.90;;;;;;5060646;28;20155;-76
2021/04/16 09:04:45;;;;;;;3.20;1.55;;;9.90;99.90;;;;;;5061863;28;20190;-75
2021/04/16 09:07:34;;;;;;;0.80;0.80;;;9.80;99.90;;;;;;5071753;28;20191;-76
2021/04/16 09:10:22;;;;;;;2.60;1.42;;;9.90;99.90;;;;;;5069721;28;20182;-75
2021/04/16 09:12:54;;;;;;;0.28;0.28;;;9.60;99.90;;;;;;5030407;28;20229;-76
2021/04/16 09:15:19;;;;;;;1.42;0.90;;;9.50;99.90;;;;;;5070050;28;20235;-77
2021/04/16 09:17:54;;;;;;;0.47;0.47;;;9.60;99.90;;;;;;5065911;28;20202;-75
2021/04/16 09:20:44;;;;;;;0.35;0.35;;;9.70;99.90;;;;;;5060906;28;20162;-76
2021/04/16 09:23:30;;;;;;;0.60;0.60;;;9.60;99.90;;;;;;5016626;28;20202;-79
2021/04/16 09:25:56;;;;;;;33.30;1.30;;;10.00;99.90;;;;;;5045625;28;20191;-76
2021/04/16 09:28:21;;;;;;;0.82;0.60;;;10.20;99.90;;;;;;5064958;28;20209;-73
2021/04/16 09:30:56;;;;;;;0.55;0.55;;;10.20;99.90;;;;;;5069853;28;20163;-76
2021/04/16 09:33:24;;;;;;;0.50;0.50;;;10.20;99.90;;;;;;5073434;28;20162;-77
2021/04/16 09:36:10;;;;;;;0.40;0.40;;;10.30;99.90;;;;;;5072837;28;20194;-75
2021/04/16 09:38:53;;;;;;;0.73;0.73;;;10.50;99.90;;;;;;5074155;28;20194;-74
2021/04/16 09:41:23;;;;;;;0.73;0.73;;;10.60;99.90;;;;;;5055622;28;20201;-75
2021/04/16 09:43:53;;;;;;;0.30;0.30;;;10.60;99.90;;;;;;5055864;28;20175;-76
2021/04/16 09:46:34;;;;;;;26.73;1.40;;;10.50;99.90;;;;;;5073729;28;20242;-76
2021/04/16 09:49:09;;;;;;;0.50;0.50;;;10.80;99.90;;;;;;5055119;28;20247;-76
2021/04/16 09:51:45;;;;;;;0.28;0.28;;;10.70;99.90;;;;;;5073757;28;20174;-76
2021/04/16 09:54:26;;;;;;;0.30;0.30;;;10.90;99.90;;;;;;5054850;28;20206;-74
2021/04/16 09:57:08;;;;;;;1.00;0.90;;;11.10;99.90;;;;;;5056417;28;20232;-76
2021/04/16 09:59:36;;;;;;;0.20;0.20;;;11.10;99.90;;;;;;5055222;28;20167;-75
2021/04/16 10:02:11;;;;;;;0.52;0.52;;;11.00;99.90;;;;;;5073099;28;20166;-77
2021/04/16 10:05:27;;;;;;;0.20;0.20;;;10.80;99.90;;;;;;5038325;28;20210;-76
2021/04/16 10:07:57;;;;;;;0.70;0.70;;;10.80;99.90;;;;;;5054484;28;20708;-76
2021/04/16 10:10:40;;;;;;;0.65;0.65;;;10.70;99.90;;;;;;5055108;28;20178;-76
2021/04/16 10:13:13;;;;;;;0.88;0.88;;;10.70;99.90;;;;;;5054315;28;20184;-75
2021/04/16 10:15:45;;;;;;;0.35;0.32;;;10.80;99.90;;;;;;5054472;28;20175;-76
2021/04/16 10:18:26;;;;;;;0.73;0.73;;;10.90;99.90;;;;;;5054254;28;20206;-75
2021/04/16 10:21:04;;;;;;;0.55;0.50;;;11.10;99.90;;;;;;5054256;28;20262;-76
2021/04/16 10:23:33;;;;;;;0.45;0.45;;;10.90;99.90;;;;;;5054000;28;20167;-77
2021/04/16 10:29:50;;;;;;;0.95;0.95;;;11.20;99.90;;;;;;5054893;28;20289;-76
2021/04/16 10:44:54;;;;;;;7.47;0.80;;;11.30;99.90;;;;;;5054077;28;20690;-77
2021/04/16 12:38:05;;;;;;;0.30;0.30;;;12.80;93.00;;;;;;5053416;28;20772;-76
2021/04/16 12:40:31;;;;;;;0.55;0.55;;;12.80;92.50;;;;;;5053079;28;20547;-76
2021/04/16 12:42:59;;;;;;;0.20;0.20;;;12.80;92.50;;;;;;5052708;28;20485;-76
2021/04/16 12:45:25;;;;;;;0.35;0.35;;;12.80;91.90;;;;;;5052774;28;20494;-75
2021/04/16 12:47:57;;;;;;;0.40;0.40;;;12.90;92.10;;;;;;5053338;28;20563;-75
2021/04/16 12:50:25;;;;;;;0.57;0.57;;;12.90;91.10;;;;;;5052781;28;20619;-75
2021/04/16 12:52:51;;;;;;;4.25;1.60;;;12.60;91.40;;;;;;5052711;28;20506;-77
2021/04/16 12:55:18;;;;;;;0.40;0.40;;;12.60;91.60;;;;;;5054032;28;20254;-75
2021/04/16 12:57:48;;;;;;;0.40;0.40;;;12.70;91.50;;;;;;5055892;28;20195;-76
2021/04/16 13:00:35;;;;;;;0.55;0.55;;;12.50;91.10;;;;;;5056194;28;20585;-76
2021/04/16 13:03:08;;;;;;;0.35;0.35;;;12.60;91.00;;;;;;5055613;28;20508;-77
2021/04/16 13:05:35;;;;;;;0.52;0.52;;;12.90;91.00;;;;;;5056332;28;20494;-78
2021/04/16 13:08:03;;;;;;;0.55;0.45;;;13.10;91.10;;;;;;5056179;28;20509;-78
2021/04/16 13:10:29;;;;;;;3.55;0.77;;;13.30;90.70;;;;;;5055734;28;20246;-78
2021/04/16 13:12:55;;;;;;;0.63;0.63;;;13.20;90.80;;;;;;5056025;28;20505;-75
2021/04/16 13:15:21;;;;;;;1.88;1.05;;;13.50;90.50;;;;;;5055608;28;20221;-77
2021/04/16 13:18:00;;;;;;;0.50;0.50;;;13.50;90.10;;;;;;5054809;28;20834;-75
2021/04/16 13:20:27;;;;;;;1.38;0.82;;;13.50;90.10;;;;;;5055355;28;20645;-75
2021/04/16 13:22:53;;;;;;;0.35;0.35;;;13.30;90.00;;;;;;5054970;28;20164;-75
2021/04/16 13:25:22;;;;;;;0.40;0.40;;;13.30;89.40;;;;;;5037581;28;20171;-76
2021/04/16 13:27:50;;;;;;;0.70;0.70;;;13.50;89.10;;;;;;5032706;28;20170;-76
2021/04/16 13:30:20;;;;;;;0.90;0.88;;;13.50;90.20;;;;;;5052041;28;20194;-75
2021/04/16 13:32:47;;;;;;;0.85;0.75;;;13.40;89.50;;;;;;5050358;28;20600;-76
2021/04/16 13:35:21;;;;;;;0.38;0.38;;;13.30;89.50;;;;;;5053448;28;20221;-75
2021/04/16 13:37:46;;;;;;;0.45;0.45;;;12.90;89.40;;;;;;5055484;28;20309;-75
2021/04/16 13:40:13;;;;;;;0.55;0.55;;;12.90;90.20;;;;;;5037522;28;20163;-74
2021/04/16 13:42:39;;;;;;;0.32;0.32;;;13.20;89.00;;;;;;5054873;28;20164;-75
2021/04/16 13:45:06;;;;;;;0.40;0.40;;;13.20;89.00;;;;;;5054917;28;20504;-75
2021/04/16 13:47:38;;;;;;;0.30;0.30;;;13.20;88.60;;;;;;5054776;28;20195;-75
2021/04/16 13:50:04;;;;;;;0.20;0.20;;;13.30;88.70;;;;;;5055016;28;20198;-77
2021/04/16 13:52:29;;;;;;;0.45;0.45;;;13.40;89.20;;;;;;5054836;28;20167;-76
2021/04/16 13:54:55;;;;;;;0.20;0.20;;;13.60;88.90;;;;;;5054641;28;20213;-74
2021/04/16 13:57:21;;;;;;;0.38;0.38;;;13.70;87.90;;;;;;5053530;28;20199;-74
2021/04/16 13:59:47;;;;;;;0.28;0.28;;;13.50;87.70;;;;;;5053820;28;20649;-74
2021/04/16 14:02:38;;;;;;;0.20;0.20;;;13.40;87.50;;;;;;5054525;28;20163;-74
2021/04/16 14:05:07;;;;;;;0.35;0.35;;;13.30;87.30;;;;;;5045109;28;20218;-76
2021/04/16 14:07:33;;;;;;;0.20;0.20;;;13.40;88.40;;;;;;5053886;28;20190;-75
2021/04/16 14:09:58;;;;;;;0.75;0.75;;;13.20;89.20;;;;;;5054424;28;20167;-74
2021/04/16 14:12:24;;;;;;;1.45;0.47;;;13.20;87.40;;;;;;5054250;28;20144;-75
2021/04/16 14:14:50;;;;;;;0.20;0.20;;;13.10;87.90;;;;;;5035954;28;20583;-75
2021/04/16 14:17:21;;;;;;;0.50;0.50;;;13.10;88.00;;;;;;5036775;28;20206;-76
2021/04/16 14:19:52;;;;;;;0.50;0.50;;;13.10;88.40;;;;;;5054566;28;20151;-76
2021/04/16 14:22:31;;;;;;;0.73;0.73;;;13.50;88.70;;;;;;5054590;28;20155;-76
2021/04/16 14:24:56;;;;;;;6.07;1.27;;;13.70;87.50;;;;;;5051100;28;20212;-74
2021/04/16 14:27:22;;;;;;;0.40;0.40;;;13.30;87.00;;;;;;5054287;28;20241;-75
2021/04/16 14:29:48;;;;;;;0.60;0.60;;;13.30;87.40;;;;;;5054222;28;20166;-75
2021/04/16 14:32:15;;;;;;;0.30;0.30;;;13.30;87.20;;;;;;5054247;28;20156;-76
2021/04/16 14:34:47;;;;;;;0.32;0.32;;;13.30;86.40;;;;;;5054233;28;20218;-79
2021/04/16 14:37:15;;;;;;;0.32;0.30;;;13.40;86.70;;;;;;5062916;28;20195;-75
2021/04/16 14:39:41;;;;;;;0.55;0.45;;;13.70;86.00;;;;;;5066243;28;20172;-75
2021/04/16 14:42:07;;;;;;;1.35;1.02;;;13.80;85.90;;;;;;5049369;28;20155;-75
2021/04/16 14:44:35;;;;;;;0.40;0.40;;;13.90;85.80;;;;;;5066247;28;20171;-76
2021/04/16 14:47:02;;;;;;;0.63;0.63;;;14.00;85.60;;;;;;5064778;28;20183;-76
2021/04/16 14:49:31;;;;;;;0.60;0.60;;;13.90;85.50;;;;;;5031413;28;20172;-76
2021/04/16 14:52:00;;;;;;;0.25;0.25;;;13.60;87.00;;;;;;5056503;28;20183;-76
2021/04/16 14:54:35;;;;;;;0.68;0.68;;;13.50;85.90;;;;;;5037817;28;20172;-75
2021/04/16 14:57:02;;;;;;;0.75;0.75;;;13.50;86.40;;;;;;5052980;28;20697;-77
2021/04/16 14:59:39;;;;;;;0.40;0.40;;;13.40;85.80;;;;;;5066690;28;20156;-75
2021/04/16 15:02:05;;;;;;;1.88;0.95;;;13.30;85.80;;;;;;5043693;28;20189;-76
2021/04/16 15:04:31;;;;;;;0.60;0.60;;;13.30;87.20;;;;;;5054749;28;20167;-77
2021/04/16 15:07:00;;;;;;;0.65;0.65;;;13.10;86.90;;;;;;5036311;28;20195;-77
2021/04/16 15:09:46;;;;;;;0.30;0.30;;;13.30;87.00;;;;;;5054363;28;20182;-76
2021/04/16 15:12:18;;;;;;;0.30;0.30;;;13.60;86.80;;;;;;5035952;28;20175;-76
2021/04/16 15:14:44;;;;;;;0.30;0.30;;;13.70;86.20;;;;;;5054099;28;20705;-76